createdAt,value
2019-04-05T00:01:35.133Z,23.92
2019-04-05T00:04:04.058Z,24.32
2019-04-05T00:06:32.878Z,24.52
2019-04-05T00:09:01.665Z,24.75
2019-04-05T00:11:30.550Z,24.55
2019-04-05T00:13:59.520Z,24.27
2019-04-05T00:16:28.304Z,24.05
2019-04-05T00:18:57.081Z,24.43
2019-04-05T00:21:25.890Z,24.55
2019-04-05T00:23:54.699Z,24.40
2019-04-05T00:26:23.650Z,24.27
2019-04-05T00:28:52.447Z,24.05
2019-04-05T00:31:21.250Z,24.50
2019-04-05T00:33:50.037Z,24.40
2019-04-05T00:36:18.842Z,24.63
2019-04-05T00:38:47.623Z,25.30
2019-04-05T00:41:16.482Z,25.35
2019-04-05T00:43:45.920Z,25.55
2019-04-05T00:46:15.062Z,26.12
2019-04-05T00:48:43.857Z,25.68
2019-04-05T00:51:12.807Z,26.00
2019-04-05T00:53:41.771Z,26.27
2019-04-05T00:56:10.707Z,26.30
2019-04-05T00:58:39.660Z,25.02
2019-04-05T01:01:08.528Z,25.55
2019-04-05T01:03:37.315Z,26.42
2019-04-05T01:06:06.284Z,26.20
2019-04-05T01:08:35.245Z,27.27
2019-04-05T01:11:04.247Z,25.92
2019-04-05T01:13:33.533Z,25.70
2019-04-05T01:16:02.475Z,26.10
2019-04-05T01:18:31.238Z,26.42
2019-04-05T01:21:02.591Z,27.77
2019-04-05T01:23:32.311Z,27.95
2019-04-05T01:26:02.394Z,29.23
2019-04-05T01:28:31.346Z,27.37
2019-04-05T01:31:00.138Z,28.03
2019-04-05T01:33:29.069Z,29.60
2019-04-05T01:35:57.884Z,29.80
2019-04-05T01:38:26.673Z,28.55
2019-04-05T01:40:57.194Z,29.27
2019-04-05T01:43:26.157Z,30.40
2019-04-05T01:45:55.897Z,31.27
2019-04-05T01:48:24.683Z,29.80
2019-04-05T01:50:53.646Z,32.05
2019-04-05T01:53:22.578Z,31.33
2019-04-05T01:55:51.497Z,32.08
2019-04-05T01:58:20.343Z,29.87
2019-04-05T02:00:49.266Z,30.97
2019-04-05T02:03:18.218Z,31.62
2019-04-05T02:05:47.185Z,32.23
2019-04-05T02:08:16.133Z,31.85
2019-04-05T02:10:45.116Z,32.70
2019-04-05T02:13:14.079Z,32.17
2019-04-05T02:15:43.042Z,33.02
2019-04-05T02:18:12.008Z,33.13
2019-04-05T02:20:40.917Z,33.75
2019-04-05T02:23:09.842Z,34.40
2019-04-05T02:25:38.763Z,33.75
2019-04-05T02:28:07.583Z,35.75
2019-04-05T02:30:36.523Z,34.60
2019-04-05T02:33:05.712Z,32.97
2019-04-05T02:35:34.693Z,33.73
2019-04-05T02:38:04.127Z,34.63
2019-04-05T02:40:36.215Z,35.23
2019-04-05T02:43:07.432Z,35.70
2019-04-05T02:45:39.387Z,35.52
2019-04-05T02:48:10.701Z,36.58
2019-04-05T02:50:43.938Z,37.50
2019-04-05T02:53:13.307Z,37.83
2019-04-05T02:55:44.090Z,38.48
2019-04-05T02:58:13.951Z,37.03
2019-04-05T03:00:44.243Z,37.90
2019-04-05T03:03:14.390Z,39.27
2019-04-05T03:05:44.431Z,38.67
2019-04-05T03:08:13.289Z,38.17
2019-04-05T03:11:14.262Z,39.78
2019-04-05T03:13:54.075Z,38.90
2019-04-05T03:16:40.347Z,39.38
2019-04-05T03:19:04.035Z,39.50
2019-04-05T03:21:35.461Z,39.33
2019-04-05T03:24:05.865Z,40.95
2019-04-05T03:26:38.494Z,41.08
2019-04-05T03:29:09.935Z,41.37
2019-04-05T03:31:39.472Z,44.40
2019-04-05T03:34:08.902Z,41.63
2019-04-05T03:36:38.688Z,41.28
2019-04-05T03:39:08.228Z,41.75
2019-04-05T03:41:37.689Z,43.35
2019-04-05T03:44:08.212Z,44.23
2019-04-05T03:46:37.602Z,44.63
2019-04-05T03:49:07.072Z,41.60
2019-04-05T03:51:36.640Z,45.03
2019-04-05T03:54:06.087Z,42.43
2019-04-05T03:56:38.083Z,46.18
2019-04-05T03:59:06.661Z,45.70
2019-04-05T04:01:35.921Z,46.15
2019-04-05T04:04:05.433Z,46.65
2019-04-05T04:06:34.485Z,48.00
2019-04-05T04:09:04.820Z,48.13
2019-04-05T04:11:36.264Z,46.53
2019-04-05T04:14:05.442Z,48.33
2019-04-05T04:16:34.489Z,50.55
2019-04-05T04:19:03.418Z,50.90
2019-04-05T04:21:52.287Z,52.33
2019-04-05T04:24:21.260Z,53.35
2019-04-05T04:26:51.470Z,50.90
2019-04-05T04:29:20.575Z,54.55
2019-04-05T04:31:50.542Z,55.35
2019-04-05T04:34:20.687Z,58.35
2019-04-05T04:36:49.734Z,58.35
2019-04-05T04:39:19.808Z,59.80
2019-04-05T04:41:49.211Z,59.10
2019-04-05T04:44:19.085Z,55.78
2019-04-05T04:46:48.653Z,56.15
2019-04-05T04:49:17.721Z,57.85
2019-04-05T04:51:46.922Z,59.93
2019-04-05T04:54:16.005Z,59.05
2019-04-05T04:56:45.306Z,61.05
2019-04-05T04:59:14.328Z,62.25
2019-04-05T05:01:43.279Z,64.22
2019-04-05T05:04:12.324Z,59.90
2019-04-05T05:06:41.366Z,59.60
2019-04-05T05:09:10.606Z,60.17
2019-04-05T05:11:39.597Z,59.03
2019-04-05T05:14:15.945Z,61.33
2019-04-05T05:16:44.938Z,52.90
2019-04-05T05:19:14.582Z,56.48
2019-04-05T05:21:43.910Z,60.50
2019-04-05T05:24:12.944Z,53.98
2019-04-05T05:26:42.028Z,55.75
2019-04-05T05:29:10.987Z,52.20
2019-04-05T05:31:39.971Z,53.30
2019-04-05T05:34:09.478Z,58.23
2019-04-05T05:36:40.657Z,57.13
2019-04-05T05:39:09.503Z,55.90
2019-04-05T05:41:38.475Z,50.95
2019-04-05T05:44:07.609Z,52.43
2019-04-05T05:46:36.605Z,55.73
2019-04-05T05:49:06.064Z,57.05
2019-04-05T05:51:35.455Z,53.40
2019-04-05T05:54:04.401Z,54.35
2019-04-05T05:56:33.737Z,55.85
2019-04-05T05:59:02.612Z,52.73
2019-04-05T06:01:31.699Z,53.58
2019-04-05T06:04:00.542Z,54.98
2019-04-05T06:06:29.492Z,53.63
2019-04-05T06:08:58.400Z,50.93
2019-04-05T06:11:27.231Z,53.73
2019-04-05T06:13:56.095Z,54.08
2019-04-05T06:16:25.142Z,54.70
2019-04-05T06:18:54.094Z,57.88
2019-04-05T06:21:22.990Z,54.23
2019-04-05T06:23:51.882Z,53.87
2019-04-05T06:26:20.773Z,53.80
2019-04-05T06:28:50.071Z,57.43
2019-04-05T06:31:19.103Z,60.03
2019-04-05T06:33:47.926Z,57.95
2019-04-05T06:36:16.798Z,56.42
2019-04-05T06:38:45.658Z,56.15
2019-04-05T06:41:15.102Z,52.62
2019-04-05T06:43:43.892Z,57.73
2019-04-05T06:46:12.776Z,52.73
2019-04-05T06:48:41.664Z,58.10
2019-04-05T06:51:10.559Z,56.85
2019-04-05T06:53:39.401Z,55.48
2019-04-05T06:56:08.220Z,52.70
2019-04-05T06:58:37.049Z,52.65
2019-04-05T07:01:05.991Z,55.03
2019-04-05T07:03:34.901Z,54.20
2019-04-05T07:06:03.903Z,56.23
2019-04-05T07:08:32.687Z,55.08
2019-04-05T07:11:01.616Z,52.48
2019-04-05T07:13:30.483Z,45.40
2019-04-05T07:15:59.587Z,46.08
2019-04-05T07:18:35.525Z,51.77
2019-04-05T07:20:59.364Z,47.88
2019-04-05T07:23:31.651Z,45.80
2019-04-05T07:26:00.452Z,42.85
2019-04-05T07:28:29.434Z,44.18
2019-04-05T07:30:58.406Z,46.53
2019-04-05T07:33:27.238Z,42.83
2019-04-05T07:35:56.358Z,42.83
2019-04-05T07:38:25.440Z,44.00
2019-04-05T07:40:54.660Z,46.60
2019-04-05T07:43:23.545Z,40.88
2019-04-05T07:45:52.348Z,42.90
2019-04-05T07:48:21.282Z,43.08
2019-04-05T07:50:50.163Z,44.75
2019-04-05T07:53:19.018Z,40.33
2019-04-05T07:55:48.012Z,43.00
2019-04-05T07:58:17.066Z,35.35
2019-04-05T08:00:50.263Z,39.80
2019-04-05T08:03:19.830Z,40.80
2019-04-05T08:05:49.835Z,39.78
2019-04-05T08:08:38.727Z,38.05
2019-04-05T08:11:07.693Z,38.40
2019-04-05T08:13:40.711Z,40.05
2019-04-05T08:16:09.772Z,39.45
2019-04-05T08:18:38.574Z,40.27
2019-04-05T08:21:07.526Z,36.93
2019-04-05T08:23:36.409Z,40.67
2019-04-05T08:26:05.416Z,38.42
2019-04-05T08:28:34.203Z,37.85
2019-04-05T08:31:03.161Z,37.40
2019-04-05T08:33:32.318Z,37.93
2019-04-05T08:36:01.142Z,39.75
2019-04-05T08:38:29.996Z,38.48
2019-04-05T08:40:58.948Z,37.28
2019-04-05T08:43:27.848Z,38.88
2019-04-05T08:45:56.671Z,36.15
2019-04-05T08:48:25.796Z,38.42
2019-04-05T08:50:54.727Z,37.48
2019-04-05T08:53:23.563Z,40.60
2019-04-05T08:55:52.410Z,40.40
2019-04-05T08:58:32.831Z,40.95
2019-04-05T09:00:51.949Z,40.98
2019-04-05T09:03:20.776Z,39.67
2019-04-05T09:05:49.625Z,42.88
2019-04-05T09:08:21.306Z,42.17
2019-04-05T09:10:49.215Z,40.88
2019-04-05T09:13:18.042Z,44.08
2019-04-05T09:15:47.034Z,42.08
2019-04-05T09:18:15.978Z,40.55
2019-04-05T09:20:44.833Z,40.97
2019-04-05T09:23:13.850Z,39.80
2019-04-05T09:25:42.973Z,39.50
2019-04-05T09:28:12.007Z,40.30
2019-04-05T09:30:41.899Z,42.67
2019-04-05T09:33:10.826Z,41.05
2019-04-05T09:35:39.659Z,41.23
2019-04-05T09:38:08.556Z,39.90
2019-04-05T09:40:37.651Z,43.52
2019-04-05T09:43:06.554Z,43.67
2019-04-05T09:45:35.368Z,45.30
2019-04-05T09:48:04.311Z,43.65
2019-04-05T09:50:33.210Z,43.30
2019-04-05T09:53:02.108Z,43.45
2019-04-05T09:55:30.979Z,42.33
2019-04-05T09:57:59.816Z,40.80
2019-04-05T10:00:28.707Z,42.43
2019-04-05T10:02:57.578Z,44.67
2019-04-05T10:05:27.097Z,43.42
2019-04-05T10:07:56.039Z,40.95
2019-04-05T10:10:24.961Z,43.40
2019-04-05T10:12:53.813Z,43.60
2019-04-05T10:15:22.676Z,39.05
2019-04-05T10:17:51.575Z,40.30
2019-04-05T10:20:20.636Z,42.90
2019-04-05T10:22:49.784Z,40.50
2019-04-05T10:25:18.658Z,42.23
2019-04-05T10:27:47.464Z,37.83
2019-04-05T10:30:16.548Z,41.18
2019-04-05T10:32:46.310Z,40.83
2019-04-05T10:35:15.612Z,39.65
2019-04-05T10:37:44.846Z,38.53
2019-04-05T10:40:14.455Z,40.90
2019-04-05T10:42:43.362Z,39.25
2019-04-05T10:45:13.149Z,40.10
2019-04-05T10:47:42.045Z,37.10
2019-04-05T10:50:13.234Z,35.52
2019-04-05T10:52:42.102Z,37.20
2019-04-05T10:55:11.807Z,39.30
2019-04-05T10:57:40.770Z,40.52
2019-04-05T11:00:13.564Z,42.13
2019-04-05T11:02:42.527Z,40.78
2019-04-05T11:05:11.714Z,41.33
2019-04-05T11:07:41.011Z,42.60
2019-04-05T11:10:10.086Z,41.67
2019-04-05T11:12:38.954Z,43.25
2019-04-05T11:15:08.224Z,41.58
2019-04-05T11:17:37.095Z,42.53
2019-04-05T11:20:20.769Z,39.95
2019-04-05T11:22:38.081Z,39.55
2019-04-05T11:25:08.132Z,38.77
2019-04-05T11:27:37.093Z,41.98
2019-04-05T11:30:07.212Z,37.08
2019-04-05T11:32:36.227Z,36.03
2019-04-05T11:35:06.050Z,36.33
2019-04-05T11:37:35.944Z,35.70
2019-04-05T11:40:05.892Z,37.85
2019-04-05T11:42:37.358Z,36.35
2019-04-05T11:45:07.250Z,36.68
2019-04-05T11:47:37.346Z,34.45
2019-04-05T11:50:08.281Z,36.23
2019-04-05T11:52:37.289Z,35.60
2019-04-05T11:55:06.768Z,35.55
2019-04-05T11:57:35.719Z,35.08
2019-04-05T12:00:12.380Z,35.90
2019-04-05T12:02:53.489Z,36.45
2019-04-05T12:05:25.268Z,32.70
2019-04-05T12:07:53.067Z,35.35
2019-04-05T12:10:22.063Z,35.50
2019-04-05T12:12:50.972Z,36.43
2019-04-05T12:15:19.848Z,33.40
2019-04-05T12:17:48.831Z,34.40
2019-04-05T12:20:27.045Z,35.50
2019-04-05T12:22:55.863Z,33.33
2019-04-05T12:25:24.797Z,32.23
2019-04-05T12:28:05.658Z,31.57
2019-04-05T12:30:24.854Z,32.38
2019-04-05T12:32:53.762Z,32.10
2019-04-05T12:35:22.646Z,30.43
2019-04-05T12:37:55.514Z,28.80
2019-04-05T12:40:22.523Z,30.20
2019-04-05T12:42:53.014Z,27.73
2019-04-05T12:45:22.126Z,28.52
2019-04-05T12:47:51.010Z,29.80
2019-04-05T12:50:19.974Z,31.68
2019-04-05T12:52:48.800Z,32.98
2019-04-05T12:55:17.699Z,32.80
2019-04-05T12:57:48.435Z,33.53
2019-04-05T13:00:17.871Z,31.35
2019-04-05T13:02:49.770Z,33.23
2019-04-05T13:05:20.249Z,32.03
2019-04-05T13:07:47.996Z,30.80
2019-04-05T13:10:17.057Z,32.55
2019-04-05T13:12:45.893Z,30.20
2019-04-05T13:15:17.093Z,31.75
2019-04-05T13:17:45.950Z,28.63
2019-04-05T13:20:15.130Z,29.67
2019-04-05T13:22:44.051Z,26.65
2019-04-05T13:25:13.346Z,28.38
2019-04-05T13:27:42.640Z,27.42
2019-04-05T13:30:11.983Z,27.30
2019-04-05T13:32:41.148Z,26.90
2019-04-05T13:35:10.007Z,26.42
2019-04-05T13:37:38.929Z,28.25
2019-04-05T13:40:09.346Z,25.95
2019-04-05T13:42:38.183Z,26.65
2019-04-05T13:45:07.398Z,27.22
2019-04-05T13:47:38.878Z,26.48
2019-04-05T13:50:11.005Z,25.90
2019-04-05T13:52:41.244Z,28.45
2019-04-05T13:55:15.473Z,26.60
2019-04-05T13:57:44.288Z,29.67
2019-04-05T14:00:17.493Z,31.20
2019-04-05T14:02:44.635Z,31.48
2019-04-05T14:05:13.945Z,30.23
2019-04-05T14:07:42.792Z,28.87
2019-04-05T14:10:12.588Z,30.97
2019-04-05T14:12:41.827Z,32.08
2019-04-05T14:15:11.970Z,33.95
2019-04-05T14:17:43.913Z,34.65
2019-04-05T14:20:12.210Z,35.60
2019-04-05T14:22:41.153Z,35.70
2019-04-05T14:25:10.621Z,36.93
2019-04-05T14:27:39.729Z,38.10
2019-04-05T14:30:08.993Z,39.00
2019-04-05T14:32:37.958Z,37.58
2019-04-05T14:35:10.445Z,34.20
2019-04-05T14:37:39.453Z,34.55
2019-04-05T14:40:09.641Z,36.33
2019-04-05T14:42:38.463Z,34.10
2019-04-05T14:45:07.684Z,33.48
2019-04-05T14:47:36.740Z,33.88
2019-04-05T14:50:06.159Z,32.40
2019-04-05T14:52:49.575Z,31.85
2019-04-05T14:55:18.195Z,31.53
2019-04-05T14:57:47.174Z,30.55
2019-04-05T15:00:17.324Z,28.93
2019-04-05T15:02:46.169Z,27.58
2019-04-05T15:05:15.727Z,31.70
2019-04-05T15:07:44.554Z,31.05
2019-04-05T15:10:13.590Z,27.80
2019-04-05T15:12:42.419Z,29.23
2019-04-05T15:15:12.841Z,28.23
2019-04-05T15:17:48.038Z,31.48
2019-04-05T15:20:13.331Z,28.62
2019-04-05T15:22:42.507Z,30.85
2019-04-05T15:25:11.626Z,29.67
2019-04-05T15:27:40.414Z,28.77
2019-04-05T15:30:09.652Z,29.50
2019-04-05T15:32:38.898Z,29.15
2019-04-05T15:35:08.172Z,27.50
2019-04-05T15:37:37.608Z,26.65
2019-04-05T15:40:09.171Z,27.35
2019-04-05T15:42:38.065Z,26.17
2019-04-05T15:45:10.510Z,26.87
2019-04-05T15:47:39.488Z,27.30
2019-04-05T15:50:08.450Z,29.37
2019-04-05T15:52:37.322Z,27.10
2019-04-05T15:55:06.535Z,26.15
2019-04-05T15:57:35.661Z,27.55
2019-04-05T16:00:06.105Z,27.37
2019-04-05T16:02:34.983Z,27.05
2019-04-05T16:05:03.965Z,25.40
2019-04-05T16:07:32.897Z,27.75
2019-04-05T16:10:01.763Z,26.68
2019-04-05T16:12:30.659Z,28.20
2019-04-05T16:14:59.471Z,26.62
2019-04-05T16:17:28.291Z,26.55
2019-04-05T16:19:57.132Z,28.47
2019-04-05T16:22:31.468Z,26.57
2019-04-05T16:24:56.758Z,26.90
2019-04-05T16:27:25.911Z,27.98
2019-04-05T16:29:54.962Z,29.05
2019-04-05T16:32:23.913Z,27.37
2019-04-05T16:34:52.723Z,28.20
2019-04-05T16:37:22.774Z,30.27
2019-04-05T16:39:51.602Z,30.35
2019-04-05T16:42:20.455Z,30.25
2019-04-05T16:44:49.338Z,29.18
2019-04-05T16:47:18.142Z,29.57
2019-04-05T16:49:47.498Z,30.02
2019-04-05T16:52:16.330Z,30.37
2019-04-05T16:54:45.131Z,29.12
2019-04-05T16:57:16.935Z,31.17
2019-04-05T16:59:45.837Z,31.15
2019-04-05T17:02:14.775Z,31.70
2019-04-05T17:04:43.570Z,31.73
2019-04-05T17:07:12.555Z,31.25
2019-04-05T17:09:41.436Z,30.95
2019-04-05T17:12:11.066Z,32.75
2019-04-05T17:14:41.028Z,32.20
2019-04-05T17:17:09.894Z,32.98
2019-04-05T17:19:41.004Z,31.53
2019-04-05T17:22:09.915Z,32.88
2019-04-05T17:24:38.808Z,34.67
2019-04-05T17:27:11.427Z,33.23
2019-04-05T17:29:40.333Z,35.17
2019-04-05T17:32:09.206Z,31.95
2019-04-05T17:34:38.134Z,33.07
2019-04-05T17:37:07.348Z,34.03
2019-04-05T17:39:36.139Z,34.53
2019-04-05T17:42:05.155Z,36.05
2019-04-05T17:44:33.987Z,34.48
2019-04-05T17:47:02.813Z,34.25
2019-04-05T17:49:31.738Z,34.50
2019-04-05T17:52:00.695Z,34.47
2019-04-05T17:54:29.620Z,37.53
2019-04-05T17:56:58.509Z,36.63
2019-04-05T17:59:28.400Z,38.25
2019-04-05T18:01:59.777Z,38.15
2019-04-05T18:04:28.803Z,36.80
2019-04-05T18:06:57.699Z,37.73
2019-04-05T18:09:27.524Z,37.50
2019-04-05T18:11:59.574Z,39.07
2019-04-05T18:14:28.795Z,42.50
2019-04-05T18:16:57.650Z,40.88
2019-04-05T18:19:26.562Z,38.17
2019-04-05T18:21:55.445Z,37.50
2019-04-05T18:24:24.594Z,38.67
2019-04-05T18:26:53.683Z,37.73
2019-04-05T18:29:22.902Z,35.75
2019-04-05T18:31:51.700Z,38.83
2019-04-05T18:34:23.072Z,40.15
2019-04-05T18:36:54.803Z,37.25
2019-04-05T18:39:23.765Z,38.95
2019-04-05T18:41:52.856Z,37.70
2019-04-05T18:44:21.722Z,37.63
2019-04-05T18:46:50.638Z,38.05
2019-04-05T18:49:19.581Z,36.83
2019-04-05T18:51:48.491Z,37.80
2019-04-05T18:54:17.674Z,37.93
2019-04-05T18:56:46.915Z,39.53
2019-04-05T18:59:15.777Z,39.70
2019-04-05T19:01:44.766Z,42.45
2019-04-05T19:04:14.004Z,36.88
2019-04-05T19:06:42.978Z,38.40
2019-04-05T19:09:12.339Z,37.58
2019-04-05T19:11:41.356Z,36.50
2019-04-05T19:14:10.496Z,37.73
2019-04-05T19:16:39.426Z,37.60
2019-04-05T19:19:08.561Z,38.35
2019-04-05T19:21:37.626Z,37.38
2019-04-05T19:24:06.647Z,36.08
2019-04-05T19:26:35.448Z,37.38
2019-04-05T19:29:04.567Z,38.13
2019-04-05T19:49:10.455Z,39.40
2019-04-05T19:51:39.388Z,39.23
2019-04-05T19:54:09.052Z,35.90
2019-04-05T19:56:37.985Z,39.63
2019-04-05T19:59:06.999Z,36.28
2019-04-05T20:01:35.973Z,35.10
2019-04-05T20:04:05.136Z,36.45
2019-04-05T20:06:34.159Z,37.53
2019-04-05T20:09:04.923Z,35.03
2019-04-05T20:11:34.644Z,37.80
2019-04-05T20:14:03.638Z,35.08
2019-04-05T20:16:32.650Z,38.30
2019-04-05T20:19:01.711Z,36.90
2019-04-05T20:21:31.987Z,38.00
2019-04-05T20:24:09.420Z,39.50
2019-04-05T20:26:31.976Z,37.30
2019-04-05T20:29:00.910Z,35.90
2019-04-05T20:31:29.799Z,39.33
2019-04-05T20:33:58.793Z,41.68
2019-04-05T20:36:27.846Z,38.28
2019-04-05T20:38:56.946Z,35.97
2019-04-05T20:41:26.094Z,38.73
2019-04-05T20:43:54.985Z,37.20
2019-04-05T20:46:23.914Z,36.88
2019-04-05T20:48:52.842Z,38.55
2019-04-05T20:51:21.815Z,39.27
2019-04-05T20:53:50.760Z,46.28
2019-04-05T20:56:19.634Z,47.65
2019-04-05T20:58:48.519Z,37.90
2019-04-05T21:01:17.426Z,38.25
2019-04-05T21:03:46.551Z,39.03
2019-04-05T21:06:17.154Z,40.78
2019-04-05T21:08:46.470Z,39.83
2019-04-05T21:11:15.460Z,39.78
2019-04-05T21:13:44.332Z,40.48
2019-04-05T21:16:13.114Z,38.48
2019-04-05T21:18:41.936Z,38.33
2019-04-05T21:21:10.826Z,39.60
2019-04-05T21:23:39.703Z,39.27
2019-04-05T21:26:10.511Z,38.13
2019-04-05T21:28:39.491Z,39.25
2019-04-05T21:31:08.459Z,36.90
2019-04-05T21:33:37.343Z,37.78
2019-04-05T21:36:06.222Z,38.95
2019-04-05T21:38:35.068Z,39.30
2019-04-05T21:41:04.027Z,38.65
2019-04-05T21:43:32.868Z,36.25
2019-04-05T21:46:01.730Z,39.45
2019-04-05T21:48:30.771Z,39.88
2019-04-05T21:51:00.479Z,37.95
2019-04-05T21:53:29.262Z,36.48
2019-04-05T21:55:58.097Z,39.50
2019-04-05T21:58:26.923Z,37.50
2019-04-05T22:01:08.358Z,38.35
2019-04-05T22:03:37.295Z,38.45
2019-04-05T22:06:06.274Z,38.53
2019-04-05T22:08:37.184Z,42.27
2019-04-05T22:11:05.779Z,40.67
2019-04-05T22:13:34.873Z,42.00
2019-04-05T22:16:03.849Z,40.73
2019-04-05T22:18:32.626Z,39.08
2019-04-05T22:21:01.428Z,39.35
2019-04-05T22:23:30.227Z,39.30
2019-04-05T22:25:59.022Z,37.83
2019-04-05T22:28:27.870Z,40.23
2019-04-05T22:30:56.831Z,38.40
2019-04-05T22:33:25.619Z,37.10
2019-04-05T22:35:54.853Z,41.23
2019-04-05T22:38:24.033Z,39.35
2019-04-05T22:40:52.853Z,39.23
2019-04-05T22:43:21.830Z,37.73
2019-04-05T22:45:50.707Z,38.20
2019-04-05T22:48:19.502Z,38.45
2019-04-05T22:50:48.299Z,38.60
2019-04-05T22:53:17.107Z,38.50
2019-04-05T22:55:45.940Z,43.35
2019-04-05T22:58:14.743Z,40.50
2019-04-05T23:00:43.606Z,39.35
2019-04-05T23:03:12.428Z,38.10
2019-04-05T23:05:41.274Z,38.23
2019-04-05T23:08:10.174Z,40.35
2019-04-05T23:10:39.050Z,39.75
2019-04-05T23:13:07.871Z,40.15
2019-04-05T23:15:36.746Z,41.68
2019-04-05T23:18:05.610Z,41.48
2019-04-05T23:20:34.374Z,41.15
2019-04-05T23:23:03.615Z,43.42
2019-04-05T23:25:32.750Z,40.52
2019-04-05T23:28:01.617Z,40.43
2019-04-05T23:30:31.670Z,41.55
2019-04-05T23:33:00.478Z,43.05
2019-04-05T23:35:29.298Z,40.52
2019-04-05T23:37:58.154Z,42.15
2019-04-05T23:40:27.249Z,40.83
2019-04-05T23:42:56.033Z,42.43
2019-04-05T23:45:24.914Z,43.87
2019-04-05T23:47:54.587Z,43.45
2019-04-05T23:50:23.613Z,41.60
2019-04-05T23:52:52.426Z,39.55
2019-04-05T23:55:32.337Z,41.80
2019-04-05T23:57:51.719Z,40.73
